Results: 2022 Oceania Triathlon Cup Mooloolaba | Elite Men
Mooloolaba, Australia • 13 Mar, 2022
Pos First Name Last Name YOB Country Start
Num
Time Swim T1 Bike T2 Run
1 Lorcan Redmond 2000 AUS 4 01:45:53 00:18:13 00:01:11 00:55:14 00:00:53 00:30:20
2 Luke Bate 1999 AUS 2 01:46:38 00:18:09 00:01:10 00:55:25 00:00:50 00:31:02
3 Luke Willian 1996 AUS 1 01:46:51 00:18:07 00:01:14 00:55:18 00:00:53 00:31:17
4 Charlie Quin 1995 AUS 8 01:46:58 00:18:09 00:01:19 00:55:16 00:00:57 00:31:15
5 Jayden Schofield 1999 AUS 9 01:47:22 00:18:16 00:01:12 00:55:16 00:00:54 00:31:42
6 Ryan Fisher 1991 AUS 5 01:48:05 00:18:07 00:01:14 00:55:22 00:00:56 00:32:24
7 Oscar Dart 2001 AUS 10 01:48:15 00:18:06 00:01:18 00:55:22 00:00:57 00:32:31
8 Chris Deegan 1996 AUS 18 01:49:20 00:17:49 00:01:29 00:55:30 00:01:00 00:33:31
9 Luke Schofield 1999 AUS 3 01:50:01 00:18:16 00:01:16 00:57:19 00:00:52 00:32:17
10 Lachlan Jones 2000 AUS 11 01:52:10 00:18:08 00:01:15 00:55:16 00:01:00 00:36:30
11 Brayden Mercer 2004 AUS 21 01:52:27 00:18:06 00:01:21 00:57:45 00:01:02 00:34:12
12 Kurt Fryer 1998 AUS 17 01:52:41 00:18:11 00:01:27 00:57:42 00:01:00 00:34:19
13 Toby Croudson 2000 AUS 15 01:52:59 00:18:13 00:01:20 00:57:20 00:01:05 00:35:01
14 Jack Sosinski 1999 AUS 22 01:53:08 00:18:35 00:01:25 00:56:58 00:01:02 00:35:07
15 Rory Thornhill 2002 AUS 20 01:54:44 00:18:17 00:01:18 00:57:29 00:01:05 00:36:33
16 Joe Begbie 2001 AUS 16 01:57:07 00:18:17 00:01:19 00:57:22 00:01:02 00:39:05
17 Travis Coleman 1996 AUS 19 01:58:57 00:20:04 00:01:25 01:02:47 00:01:03 00:33:36
18 Connor Whiteley 1999 AUS 14 02:00:53 00:18:38 00:01:16 01:06:55 00:00:51 00:33:12
DNS Joshua Ferris 2001 AUS 6 DNS 00:00:00 00:00:00 00:00:00 00:00:00 00:00:00
DNF Kurt Mcdonald 1999 AUS 7 DNF 00:18:17 00:01:21 00:00:00 00:00:00 00:00:00
DNF Troy Whittington 1999 AUS 12 DNF 00:18:27 00:01:20 00:00:00 00:00:00 00:00:00
Program notes:

Technical Delegate: Jacqui Kenny/AUS. Head Referee: Micheal Wise/AUS. Competition Jury: Jacqui Kenny/AUS, Miles Stewart/AUS, Lukas Matys/AUS.
Distances: Swim 1500 m (1 lap), Bike 40 km (1 lap), Run 10 km (2 laps)
Water temperature: 25.1ºC; Air temperature: 19.0ºC; Humidity: 61%; Wet Bulb: 14.2ºC. Wetsuits not allowed.